Hovedside
METAR-TAF:

METAR-TAF

Lufthavner :

Utti, Finland

Utti lufthavn

breddegrad: 60-54N, lengdegrad: 026-56E, høyde over havet: 100 m

Gjeldene værobservasjon

Denne rapporten ble laget for 16 minutter siden, klokken 05:50 UTC
Vind 9 kt fra Vest, skiftende mellom Vest-sørvest og Nordvest
Temperatur -2°C
Luftfuktighet 69%
Trykk 1016 hPa
Sikt 10 km eller mer
ingen skyer under 1500 m og ingen bygeskyer

METAR: EFUT 240550Z 28009KT 240V320 CAVOK M02/M07 Q1016

Tid: 08:06 (06:06 UTC)

Varsel

Denne rapporten ble laget for 32 minutter siden, klokken 05:34 UTC
Varsel gyldig fra 24. klokken 06 UTC til 24. klokken 13 UTC
Vind 8 kt fra Vest
Sikt 10 km eller mer
ingen skyer under 1500 m og ingen bygeskyer
Sannsynlighet 40% :
Midlertidig
fra 24. klokken 10 UTC til 24. klokken 13 UTC
Vind 15 kt fra Vest-nordvest med vindkast opp mot 26 kt

TAF: EFUT 240534Z 2406/2413 28008KT CAVOK PROB40 TEMPO 2410/2413 30015G26KT

Værobservasjoner og værvarsel for over 4000 flyplasser (METAR- og TAF-rapporter).

Tilgjengelige stasjoner er representert av de røde og gule prikkene på kartet.

Hold musepekeren over prikken for å se navnet på stasjonen.

Klikk så for å se værobservasjoner og -varsler.

For å forandre kartet kan du klikke på den grønne knappen med svart kryss for å zoome inn, på den grønne knappen med strek for å zoome ut, eller på de grønne pilene for å se tilstøtende kart.


METAR-TAF: